Time;durP1;ratioP1;P1;durP2;ratioP2;P2;SDS_P1;SDS_P2;PMS_P1;PMS_P2;Temp;Humidity;BMP_temperature;BMP_pressure;BME280_temperature;BME280_humidity;BME280_pressure;Samples;Min_cycle;Max_cycle;Signal;HPM_P1;HPM_P2
2021/12/31 00:00:07;;;;;;;6.07;5.27;;;12.70;99.90;;;;;;5056776;28;20465;-60
2021/12/31 00:02:34;;;;;;;8.10;6.23;;;12.70;99.90;;;;;;5056955;28;20465;-60
2021/12/31 00:05:01;;;;;;;6.83;4.77;;;12.70;99.90;;;;;;5056730;28;20466;-60
2021/12/31 00:07:28;;;;;;;7.03;4.80;;;12.70;99.90;;;;;;5056493;28;20463;-60
2021/12/31 00:10:00;;;;;;;4.83;4.20;;;12.70;99.90;;;;;;5056608;28;20793;-58
2021/12/31 00:12:33;;;;;;;9.00;4.27;;;12.70;99.90;;;;;;5056297;28;20561;-60
2021/12/31 00:15:00;;;;;;;5.80;4.40;;;12.70;99.90;;;;;;5051030;28;20462;-60
2021/12/31 00:17:29;;;;;;;6.43;4.57;;;12.70;99.90;;;;;;5056712;28;20523;-60
2021/12/31 00:20:02;;;;;;;9.03;5.00;;;12.70;99.90;;;;;;5056704;28;20967;-59
2021/12/31 00:25:11;;;;;;;4.40;3.23;;;12.70;99.90;;;;;;5052968;28;20442;-60
2021/12/31 00:27:39;;;;;;;9.07;4.90;;;12.70;99.90;;;;;;5056633;28;20458;-59
2021/12/31 00:30:08;;;;;;;5.80;4.70;;;12.70;99.90;;;;;;5056518;28;20486;-60
2021/12/31 00:32:36;;;;;;;7.87;5.40;;;12.70;99.90;;;;;;5056904;28;20758;-60
2021/12/31 00:35:10;;;;;;;7.93;4.70;;;12.70;99.90;;;;;;5056447;28;20458;-60
2021/12/31 00:37:38;;;;;;;7.00;4.30;;;12.70;99.90;;;;;;5056436;28;20494;-60
2021/12/31 00:40:11;;;;;;;7.73;5.00;;;12.70;99.90;;;;;;5056823;28;20489;-60
2021/12/31 00:42:48;;;;;;;6.90;5.13;;;12.70;99.90;;;;;;5056867;28;20458;-60
2021/12/31 00:45:20;;;;;;;7.87;4.33;;;12.70;99.90;;;;;;5038040;28;20459;-59
2021/12/31 00:47:50;;;;;;;7.77;3.97;;;12.70;99.90;;;;;;5056535;28;20818;-60
2021/12/31 00:50:18;;;;;;;5.10;4.00;;;12.80;99.90;;;;;;5056522;28;20474;-60
2021/12/31 00:52:48;;;;;;;4.43;3.70;;;12.80;99.90;;;;;;5060622;28;20454;-58
2021/12/31 00:55:15;;;;;;;4.00;3.33;;;12.80;99.90;;;;;;5060535;28;20516;-60
2021/12/31 00:57:44;;;;;;;5.30;3.50;;;12.90;99.90;;;;;;5059669;28;20584;-60
2021/12/31 01:00:13;;;;;;;8.57;4.43;;;12.90;99.90;;;;;;5059825;28;20523;-60
2021/12/31 01:02:43;;;;;;;7.60;3.93;;;12.90;99.90;;;;;;5060379;28;20506;-60
2021/12/31 01:05:11;;;;;;;6.27;3.97;;;12.80;99.90;;;;;;5060068;28;20755;-60
2021/12/31 01:07:38;;;;;;;5.37;4.10;;;12.80;99.90;;;;;;5040305;28;20494;-60
2021/12/31 01:10:06;;;;;;;6.20;4.13;;;12.80;99.90;;;;;;5059735;28;20485;-58
2021/12/31 01:12:34;;;;;;;7.73;3.60;;;12.70;99.90;;;;;;5059706;28;20485;-60
2021/12/31 01:15:08;;;;;;;6.23;4.03;;;12.80;99.90;;;;;;5059610;28;20470;-60
2021/12/31 01:17:52;;;;;;;7.27;4.73;;;12.80;99.90;;;;;;5059714;28;20500;-61
2021/12/31 01:20:20;;;;;;;5.90;4.27;;;12.80;99.90;;;;;;5060235;28;20563;-58
2021/12/31 01:22:47;;;;;;;9.00;4.37;;;12.80;99.90;;;;;;5060100;28;20462;-60
2021/12/31 01:25:15;;;;;;;7.27;4.70;;;12.80;99.90;;;;;;5059481;28;20739;-60
2021/12/31 01:27:43;;;;;;;4.63;3.87;;;12.70;99.90;;;;;;5059332;28;20512;-60
2021/12/31 01:30:14;;;;;;;7.43;4.20;;;12.70;99.90;;;;;;5059716;28;20458;-58
2021/12/31 01:32:42;;;;;;;8.30;4.17;;;12.70;99.90;;;;;;5059722;28;20754;-59
2021/12/31 01:35:11;;;;;;;5.87;4.67;;;12.70;99.90;;;;;;5059311;28;20892;-59
2021/12/31 01:37:58;;;;;;;7.10;4.20;;;12.70;99.90;;;;;;5059309;28;20528;-59
2021/12/31 01:40:25;;;;;;;7.93;4.13;;;12.70;99.90;;;;;;5059710;28;20951;-60
2021/12/31 01:42:52;;;;;;;9.20;4.33;;;12.70;99.90;;;;;;5058842;28;20532;-60
2021/12/31 01:45:23;;;;;;;7.43;4.60;;;12.60;99.90;;;;;;5058969;28;20553;-60
2021/12/31 01:50:33;;;;;;;5.37;3.70;;;12.70;99.90;;;;;;5055593;28;20894;-60
2021/12/31 01:53:01;;;;;;;6.80;3.23;;;12.70;99.90;;;;;;5059219;28;20519;-58
2021/12/31 01:55:32;;;;;;;4.93;3.90;;;12.60;99.90;;;;;;5057218;28;20461;-60
2021/12/31 01:58:01;;;;;;;4.33;3.50;;;12.60;99.90;;;;;;5059105;28;20950;-60
2021/12/31 02:00:30;;;;;;;4.53;3.30;;;12.60;99.90;;;;;;5058220;28;20470;-59
2021/12/31 02:03:01;;;;;;;9.23;3.83;;;12.70;99.90;;;;;;5058740;28;20473;-59
2021/12/31 02:05:29;;;;;;;5.37;3.97;;;12.70;99.90;;;;;;5058871;28;20524;-59
2021/12/31 02:07:56;;;;;;;3.63;2.80;;;12.70;99.90;;;;;;5058920;28;20462;-60
2021/12/31 02:10:23;;;;;;;6.13;3.20;;;12.70;99.90;;;;;;5058925;28;20490;-60
2021/12/31 02:12:50;;;;;;;5.87;3.53;;;12.70;99.90;;;;;;5058709;28;20466;-59
2021/12/31 02:15:19;;;;;;;5.10;3.40;;;12.70;99.90;;;;;;5058613;28;20806;-60
2021/12/31 02:17:52;;;;;;;5.33;3.37;;;12.70;99.90;;;;;;5058582;28;20559;-60
2021/12/31 02:20:33;;;;;;;6.23;3.50;;;12.80;99.90;;;;;;5059057;28;20880;-60
2021/12/31 02:23:06;;;;;;;7.53;3.43;;;12.80;99.90;;;;;;5058465;28;20494;-59
2021/12/31 02:25:35;;;;;;;6.13;2.90;;;12.80;99.90;;;;;;5058617;28;20490;-60
2021/12/31 02:28:02;;;;;;;4.20;3.67;;;12.80;99.90;;;;;;5058405;28;20458;-60
2021/12/31 02:30:30;;;;;;;5.47;3.43;;;12.80;99.90;;;;;;5058330;28;20497;-60
2021/12/31 02:32:59;;;;;;;4.70;2.80;;;12.80;99.90;;;;;;5058254;28;20466;-58
2021/12/31 02:35:27;;;;;;;3.53;2.80;;;12.80;99.90;;;;;;5057976;28;20466;-57
2021/12/31 02:37:55;;;;;;;3.90;3.27;;;12.80;99.90;;;;;;5058452;28;20532;-57
2021/12/31 02:40:28;;;;;;;3.97;3.17;;;12.80;99.90;;;;;;5058759;28;20458;-60
2021/12/31 02:42:55;;;;;;;7.03;3.90;;;12.80;99.90;;;;;;5058362;28;20948;-59
2021/12/31 02:45:29;;;;;;;5.47;3.10;;;12.80;99.90;;;;;;5057839;28;20519;-59
2021/12/31 02:47:56;;;;;;;3.97;2.83;;;12.80;99.90;;;;;;5058430;28;20793;-60
2021/12/31 02:50:33;;;;;;;3.67;2.60;;;12.80;99.90;;;;;;5058048;28;20508;-60
2021/12/31 02:53:02;;;;;;;7.07;3.00;;;12.80;99.90;;;;;;5058165;28;20512;-60
2021/12/31 02:55:31;;;;;;;3.40;2.97;;;12.80;99.90;;;;;;5057859;28;20462;-57
2021/12/31 02:57:59;;;;;;;5.13;3.03;;;12.80;99.90;;;;;;5058011;28;20499;-59
2021/12/31 03:00:27;;;;;;;4.50;3.10;;;12.70;99.90;;;;;;5057848;28;20466;-60
2021/12/31 03:02:56;;;;;;;3.60;2.90;;;12.80;99.90;;;;;;5056848;28;20466;-57
2021/12/31 03:05:24;;;;;;;4.57;2.97;;;12.80;99.90;;;;;;5057791;28;20436;-60
2021/12/31 03:07:51;;;;;;;3.83;2.90;;;12.80;99.90;;;;;;5057620;28;20462;-60
2021/12/31 03:10:21;;;;;;;7.47;3.53;;;12.80;99.90;;;;;;5057739;28;20547;-61
2021/12/31 03:12:50;;;;;;;4.67;3.27;;;12.80;99.90;;;;;;5057922;28;20454;-61
2021/12/31 03:15:20;;;;;;;5.87;2.80;;;12.80;99.90;;;;;;5057632;28;20524;-61
2021/12/31 03:17:48;;;;;;;3.70;2.87;;;12.80;99.90;;;;;;5057792;28;20530;-61
2021/12/31 03:20:25;;;;;;;3.80;2.83;;;12.80;99.90;;;;;;5057855;28;20470;-61
2021/12/31 03:22:52;;;;;;;6.57;2.57;;;12.80;99.90;;;;;;5057513;28;20457;-61
2021/12/31 03:25:20;;;;;;;6.00;3.00;;;12.80;99.90;;;;;;5057296;28;20433;-61
2021/12/31 03:27:50;;;;;;;5.93;2.73;;;12.80;99.90;;;;;;5057565;28;20528;-61
2021/12/31 03:30:18;;;;;;;4.93;2.93;;;12.70;99.90;;;;;;5057971;28;20459;-61
2021/12/31 03:32:45;;;;;;;4.20;2.93;;;12.70;99.90;;;;;;5057959;28;20885;-60
2021/12/31 03:35:15;;;;;;;3.70;3.00;;;12.70;99.90;;;;;;5057832;28;20567;-61
2021/12/31 03:37:42;;;;;;;3.23;2.80;;;12.80;99.90;;;;;;5057723;28;20490;-61
2021/12/31 03:40:11;;;;;;;4.80;3.07;;;12.80;99.90;;;;;;5058212;28;20888;-61
2021/12/31 03:42:40;;;;;;;4.20;2.93;;;12.80;99.90;;;;;;5058037;28;20880;-61
2021/12/31 03:45:08;;;;;;;3.40;2.83;;;12.80;99.90;;;;;;5057918;28;20466;-61
2021/12/31 03:47:35;;;;;;;3.60;2.53;;;12.80;99.90;;;;;;5057644;28;20959;-61
2021/12/31 03:50:01;;;;;;;4.13;3.00;;;12.80;99.90;;;;;;5057520;28;20545;-61
2021/12/31 03:52:28;;;;;;;4.90;3.27;;;12.70;99.90;;;;;;5057648;28;20461;-61
2021/12/31 03:54:55;;;;;;;4.93;3.13;;;12.80;99.90;;;;;;5057500;28;20463;-61
2021/12/31 03:57:22;;;;;;;4.20;2.90;;;12.80;99.90;;;;;;5057172;28;20551;-61
2021/12/31 03:59:51;;;;;;;3.10;2.80;;;12.80;99.90;;;;;;5057858;28;20896;-61
2021/12/31 04:02:18;;;;;;;3.70;2.67;;;12.70;99.90;;;;;;5057531;28;20481;-61
2021/12/31 04:04:45;;;;;;;6.10;3.20;;;12.70;99.90;;;;;;5057585;28;20458;-61
2021/12/31 04:07:12;;;;;;;7.53;3.27;;;12.80;99.90;;;;;;5057309;28;20480;-61
2021/12/31 04:09:41;;;;;;;4.07;2.77;;;12.70;99.90;;;;;;5057090;28;20545;-61
2021/12/31 04:12:09;;;;;;;3.30;3.00;;;12.70;99.90;;;;;;5056486;28;20468;-61
2021/12/31 04:14:36;;;;;;;6.17;3.23;;;12.70;99.90;;;;;;5056830;28;20466;-61
2021/12/31 04:17:04;;;;;;;4.43;3.33;;;12.70;99.90;;;;;;5056163;28;20525;-61
2021/12/31 04:19:31;;;;;;;4.23;3.27;;;12.70;99.90;;;;;;5056344;28;20462;-61
2021/12/31 04:21:58;;;;;;;5.40;3.40;;;12.70;99.90;;;;;;5055907;28;20462;-61
2021/12/31 04:24:40;;;;;;;4.00;2.77;;;12.60;99.90;;;;;;5056413;28;20793;-61
2021/12/31 04:27:08;;;;;;;18.40;5.00;;;12.60;99.90;;;;;;5058649;28;20458;-61
2021/12/31 04:29:35;;;;;;;8.00;5.90;;;12.70;99.90;;;;;;5060092;28;20543;-61
2021/12/31 04:32:02;;;;;;;5.30;3.50;;;12.70;99.90;;;;;;5059650;28;20462;-61
2021/12/31 04:34:30;;;;;;;7.10;3.70;;;12.60;99.90;;;;;;5059346;28;20790;-61
2021/12/31 04:36:58;;;;;;;5.03;3.93;;;12.60;99.90;;;;;;5059353;28;20535;-61
2021/12/31 04:39:25;;;;;;;4.20;3.00;;;12.60;99.90;;;;;;5059134;28;20465;-61
2021/12/31 04:41:52;;;;;;;4.17;2.97;;;12.60;99.90;;;;;;5059119;28;20907;-61
2021/12/31 04:44:19;;;;;;;5.40;3.50;;;12.50;99.90;;;;;;5059127;28;20516;-61
2021/12/31 04:46:46;;;;;;;4.67;3.07;;;12.50;99.90;;;;;;5059250;28;20494;-61
2021/12/31 04:49:13;;;;;;;6.73;3.50;;;12.50;99.90;;;;;;5059742;28;20466;-61
2021/12/31 04:51:42;;;;;;;4.83;3.23;;;12.50;99.90;;;;;;5059408;28;20556;-61
2021/12/31 04:54:14;;;;;;;4.07;3.17;;;12.50;99.90;;;;;;5059909;28;20945;-61
2021/12/31 04:56:42;;;;;;;6.27;3.10;;;12.40;99.90;;;;;;5059067;28;20469;-61
2021/12/31 04:59:12;;;;;;;4.23;3.37;;;12.40;99.90;;;;;;5059357;28;20493;-61
2021/12/31 05:01:39;;;;;;;4.00;3.37;;;12.40;99.90;;;;;;5059999;28;20489;-61
2021/12/31 05:04:06;;;;;;;4.70;3.30;;;12.30;99.90;;;;;;5059511;28;20895;-61
2021/12/31 05:06:34;;;;;;;5.17;3.20;;;12.30;99.90;;;;;;5059745;28;20468;-61
2021/12/31 05:09:02;;;;;;;3.53;3.00;;;12.20;99.90;;;;;;5059550;28;20760;-60
2021/12/31 05:11:29;;;;;;;4.35;3.65;;;12.20;99.90;;;;;;5014512;28;1308645;-61
2021/12/31 05:13:56;;;;;;;5.07;3.37;;;12.20;99.90;;;;;;5060539;28;20203;-61
2021/12/31 05:16:23;;;;;;;6.40;3.90;;;12.10;99.90;;;;;;5060771;28;20874;-61
2021/12/31 05:18:50;;;;;;;4.87;3.80;;;12.10;99.90;;;;;;5060435;28;20549;-60
2021/12/31 05:21:17;;;;;;;3.90;3.50;;;12.10;99.90;;;;;;5060387;28;20488;-61
2021/12/31 05:23:44;;;;;;;6.60;4.30;;;12.10;99.90;;;;;;5060319;28;20764;-61
2021/12/31 05:26:12;;;;;;;6.90;4.87;;;12.10;99.90;;;;;;5060388;28;20494;-61
2021/12/31 05:28:39;;;;;;;5.70;4.90;;;12.10;99.90;;;;;;5060368;28;20496;-61
2021/12/31 05:31:06;;;;;;;7.73;4.00;;;12.10;99.90;;;;;;5060561;28;20539;-61
2021/12/31 05:33:34;;;;;;;3.60;3.13;;;12.10;99.90;;;;;;5060291;28;20469;-61
2021/12/31 05:36:01;;;;;;;5.00;3.20;;;12.10;99.90;;;;;;5060134;28;20663;-61
2021/12/31 05:38:28;;;;;;;4.40;3.27;;;12.10;99.90;;;;;;5059799;28;20526;-61
2021/12/31 05:40:54;;;;;;;4.13;3.33;;;12.10;99.90;;;;;;5060228;28;20462;-61
2021/12/31 05:43:23;;;;;;;5.03;3.30;;;12.10;99.90;;;;;;5059948;28;20910;-60
2021/12/31 05:45:50;;;;;;;8.53;3.87;;;12.10;99.90;;;;;;5059746;28;20466;-60
2021/12/31 05:48:20;;;;;;;3.90;3.27;;;12.00;99.90;;;;;;5059950;28;20462;-61
2021/12/31 05:50:47;;;;;;;6.23;3.93;;;12.10;99.90;;;;;;5059686;28;20492;-60
2021/12/31 05:53:14;;;;;;;7.40;4.10;;;12.00;99.90;;;;;;5059248;28;20533;-60
2021/12/31 05:55:40;;;;;;;4.83;4.33;;;12.00;99.90;;;;;;5059743;28;20516;-60
2021/12/31 05:58:07;;;;;;;6.27;4.43;;;12.00;99.90;;;;;;5060127;28;21008;-60
2021/12/31 06:00:36;;;;;;;5.77;3.87;;;12.00;99.90;;;;;;5060134;28;20458;-61
2021/12/31 06:03:03;;;;;;;8.03;6.33;;;12.00;99.90;;;;;;5059597;28;20490;-61
2021/12/31 06:05:30;;;;;;;5.93;5.20;;;12.00;99.90;;;;;;5059569;28;20750;-60
2021/12/31 06:07:58;;;;;;;9.80;6.97;;;12.00;99.90;;;;;;5059885;28;20462;-60
2021/12/31 06:10:25;;;;;;;5.50;4.73;;;12.00;99.90;;;;;;5059620;28;20513;-60
2021/12/31 06:12:56;;;;;;;8.83;6.03;;;12.00;99.90;;;;;;5059907;28;20454;-60
2021/12/31 06:15:25;;;;;;;7.73;5.47;;;12.00;99.90;;;;;;5059450;28;20477;-60
2021/12/31 06:17:53;;;;;;;7.63;5.57;;;12.00;99.90;;;;;;5059183;28;20537;-60
2021/12/31 06:20:20;;;;;;;5.70;4.70;;;12.00;99.90;;;;;;5059679;28;20490;-60
2021/12/31 06:22:47;;;;;;;12.60;7.73;;;12.00;99.90;;;;;;5059931;28;20551;-60
2021/12/31 06:25:14;;;;;;;6.23;4.57;;;12.00;99.90;;;;;;5059787;28;20462;-60
2021/12/31 06:27:41;;;;;;;8.97;7.10;;;12.00;99.90;;;;;;5059785;28;20520;-60
2021/12/31 06:30:10;;;;;;;6.00;4.00;;;11.90;99.90;;;;;;5057803;28;20498;-60
2021/12/31 06:32:37;;;;;;;4.20;3.50;;;12.00;99.90;;;;;;5060100;28;20945;-60
2021/12/31 06:35:07;;;;;;;9.30;6.07;;;11.90;99.90;;;;;;5058761;28;20502;-60
2021/12/31 06:37:34;;;;;;;6.27;4.03;;;12.00;99.90;;;;;;5050312;28;20719;-60
2021/12/31 06:40:04;;;;;;;6.60;4.20;;;12.00;99.90;;;;;;5056128;28;20555;-60
2021/12/31 06:42:31;;;;;;;6.73;4.80;;;12.00;99.90;;;;;;5056480;28;20490;-60
2021/12/31 06:44:58;;;;;;;4.50;3.77;;;12.00;99.90;;;;;;5057643;28;20822;-60
2021/12/31 06:47:25;;;;;;;5.40;4.90;;;12.00;99.90;;;;;;5057131;28;20497;-60
2021/12/31 06:49:52;;;;;;;7.27;4.70;;;12.00;99.90;;;;;;5057303;28;20948;-60
2021/12/31 06:52:21;;;;;;;4.73;4.07;;;12.10;99.90;;;;;;5054190;28;20580;-60
2021/12/31 06:54:48;;;;;;;6.87;4.20;;;12.10;99.90;;;;;;5057529;28;20458;-60
2021/12/31 06:57:15;;;;;;;4.40;4.00;;;12.10;99.90;;;;;;5057323;28;20481;-60
2021/12/31 06:59:42;;;;;;;5.67;3.87;;;12.10;99.90;;;;;;5057044;28;20528;-60
2021/12/31 07:02:09;;;;;;;5.83;3.40;;;12.10;99.90;;;;;;5057673;28;20462;-60
2021/12/31 07:04:36;;;;;;;4.17;3.43;;;12.00;99.90;;;;;;5057350;28;20733;-60
2021/12/31 07:07:04;;;;;;;4.93;3.37;;;12.00;99.90;;;;;;5058051;28;20458;-60
2021/12/31 07:09:32;;;;;;;4.10;3.70;;;12.00;99.90;;;;;;5058123;28;20437;-60
2021/12/31 07:11:59;;;;;;;4.33;3.40;;;11.90;99.90;;;;;;5058271;28;20462;-60
2021/12/31 07:14:26;;;;;;;6.53;3.80;;;11.90;99.90;;;;;;5058575;28;20953;-60
2021/12/31 07:16:53;;;;;;;4.33;3.43;;;11.80;99.90;;;;;;5058395;28;20490;-60
2021/12/31 07:19:20;;;;;;;5.97;3.67;;;11.80;99.90;;;;;;5058181;28;20501;-60
2021/12/31 07:21:50;;;;;;;6.80;3.67;;;11.80;99.90;;;;;;5057795;28;20856;-60
2021/12/31 07:24:17;;;;;;;4.40;3.80;;;11.70;99.90;;;;;;5058260;28;20927;-60
2021/12/31 07:26:47;;;;;;;4.30;3.63;;;11.70;99.90;;;;;;5058379;28;20516;-60
2021/12/31 07:29:14;;;;;;;4.70;3.50;;;11.70;99.90;;;;;;5058480;28;20450;-60
2021/12/31 07:31:41;;;;;;;5.60;3.73;;;11.70;99.90;;;;;;5058149;28;20462;-60
2021/12/31 07:34:08;;;;;;;6.30;4.57;;;11.70;99.90;;;;;;5058137;28;20511;-60
2021/12/31 07:36:35;;;;;;;6.30;3.80;;;11.70;99.90;;;;;;5058261;28;20520;-60
2021/12/31 07:39:05;;;;;;;5.20;3.77;;;11.60;99.90;;;;;;5057126;28;20500;-60
2021/12/31 07:41:33;;;;;;;6.23;4.73;;;11.60;99.90;;;;;;5057949;28;20884;-60
2021/12/31 07:44:05;;;;;;;7.77;3.80;;;11.60;99.90;;;;;;5057590;28;20512;-60
2021/12/31 07:46:32;;;;;;;6.53;3.90;;;11.60;99.90;;;;;;5058193;28;20545;-60
2021/12/31 07:48:59;;;;;;;8.80;4.50;;;11.60;99.90;;;;;;5057708;28;20454;-60
2021/12/31 07:51:26;;;;;;;6.57;4.37;;;11.60;99.90;;;;;;5054826;28;20958;-60
2021/12/31 07:53:53;;;;;;;5.23;4.50;;;11.60;99.90;;;;;;5056520;28;20919;-60
2021/12/31 07:56:20;;;;;;;4.87;4.37;;;11.60;99.90;;;;;;5056464;28;20813;-60
2021/12/31 07:58:47;;;;;;;4.80;4.30;;;11.60;99.90;;;;;;5056834;28;20784;-60
2021/12/31 08:01:17;;;;;;;3.40;3.10;;;11.60;99.90;;;;;;5057279;28;20544;-60
2021/12/31 08:03:44;;;;;;;6.60;4.20;;;11.70;99.90;;;;;;5056566;28;20472;-60
2021/12/31 08:06:13;;;;;;;5.67;4.23;;;11.70;99.90;;;;;;5057698;28;20485;-60
2021/12/31 08:08:40;;;;;;;6.03;4.27;;;11.70;99.90;;;;;;5057276;28;20516;-60
2021/12/31 08:11:08;;;;;;;5.90;3.93;;;11.80;99.90;;;;;;5056721;28;21000;-60
2021/12/31 08:13:35;;;;;;;6.50;4.30;;;11.90;99.90;;;;;;5056418;28;20466;-60
2021/12/31 08:16:02;;;;;;;4.80;3.67;;;12.00;99.90;;;;;;5057095;28;20461;-60
2021/12/31 08:18:30;;;;;;;9.73;3.67;;;12.10;99.90;;;;;;5057209;28;20555;-60
2021/12/31 08:20:57;;;;;;;4.70;3.40;;;12.20;99.90;;;;;;5057726;28;20462;-60
2021/12/31 08:23:24;;;;;;;4.63;2.97;;;12.30;99.90;;;;;;5057454;28;20462;-60
2021/12/31 08:25:51;;;;;;;3.57;3.17;;;12.30;99.90;;;;;;5056751;28;20498;-60
2021/12/31 08:28:18;;;;;;;3.23;2.93;;;12.40;99.90;;;;;;5057458;28;20872;-60
2021/12/31 08:30:45;;;;;;;3.90;3.10;;;12.50;99.90;;;;;;5057534;28;20462;-60
2021/12/31 08:33:12;;;;;;;4.67;3.20;;;12.40;99.90;;;;;;5057573;28;20726;-60
2021/12/31 08:35:41;;;;;;;5.63;3.43;;;12.30;99.90;;;;;;5056836;28;20520;-60
2021/12/31 08:38:08;;;;;;;4.30;3.77;;;12.30;99.90;;;;;;5057476;28;20519;-60
2021/12/31 08:40:35;;;;;;;6.60;3.77;;;12.20;99.90;;;;;;5057177;28;20462;-60
2021/12/31 08:43:04;;;;;;;4.10;3.70;;;12.20;99.90;;;;;;5056954;28;20519;-60
2021/12/31 08:45:33;;;;;;;6.60;3.80;;;12.10;99.90;;;;;;5057163;28;20458;-60
2021/12/31 08:48:03;;;;;;;5.67;3.70;;;12.10;99.90;;;;;;5056483;28;20461;-60
2021/12/31 08:50:31;;;;;;;6.60;3.13;;;12.10;99.90;;;;;;5057070;28;20466;-60
2021/12/31 08:52:59;;;;;;;4.37;3.40;;;12.10;99.90;;;;;;5057014;28;20531;-60
2021/12/31 08:55:27;;;;;;;5.07;3.50;;;12.10;99.90;;;;;;5056986;28;20466;-60
2021/12/31 08:57:56;;;;;;;4.30;3.40;;;12.10;99.90;;;;;;5056313;28;20470;-60
2021/12/31 09:00:26;;;;;;;7.23;3.87;;;12.10;99.90;;;;;;5057302;28;20596;-60
2021/12/31 09:02:59;;;;;;;5.23;3.57;;;12.10;99.90;;;;;;5056717;28;20785;-60
2021/12/31 09:05:27;;;;;;;5.63;3.50;;;12.10;99.90;;;;;;5056836;28;20501;-59
2021/12/31 09:07:55;;;;;;;5.70;3.70;;;12.10;99.90;;;;;;5057486;28;20496;-59
2021/12/31 09:10:23;;;;;;;5.63;3.50;;;12.10;99.90;;;;;;5056472;28;20490;-61
2021/12/31 09:12:51;;;;;;;3.63;3.10;;;12.10;99.90;;;;;;5054925;28;20488;-61
2021/12/31 09:15:18;;;;;;;5.60;3.10;;;12.10;99.90;;;;;;5060100;28;20469;-61
2021/12/31 09:17:45;;;;;;;5.90;3.50;;;12.10;99.90;;;;;;5060044;28;20466;-61
2021/12/31 09:20:12;;;;;;;4.30;3.20;;;12.00;99.90;;;;;;5060280;28;20529;-61
2021/12/31 09:22:39;;;;;;;9.33;3.73;;;12.10;99.90;;;;;;5060557;28;20466;-61
2021/12/31 09:25:07;;;;;;;5.23;3.40;;;12.00;99.90;;;;;;5060104;28;20819;-61
2021/12/31 09:27:38;;;;;;;4.07;3.50;;;12.10;99.90;;;;;;5059634;28;20462;-61
2021/12/31 09:30:09;;;;;;;7.23;3.70;;;12.10;99.90;;;;;;5060096;28;20519;-61
2021/12/31 09:32:39;;;;;;;4.80;3.40;;;12.10;99.90;;;;;;5060338;28;20867;-61
2021/12/31 09:35:10;;;;;;;5.43;3.60;;;12.10;99.90;;;;;;5059107;28;20466;-61
2021/12/31 09:37:37;;;;;;;3.73;3.40;;;12.10;99.90;;;;;;5059943;28;20520;-61
2021/12/31 09:40:11;;;;;;;4.13;3.60;;;12.10;99.90;;;;;;5059914;28;20528;-61
2021/12/31 09:42:48;;;;;;;6.17;3.50;;;12.10;99.90;;;;;;5060002;28;20470;-61
2021/12/31 09:45:16;;;;;;;4.50;3.20;;;12.10;99.90;;;;;;5060071;28;20458;-61
2021/12/31 09:47:43;;;;;;;4.10;3.40;;;12.20;99.90;;;;;;5059922;28;20466;-61
2021/12/31 09:50:12;;;;;;;3.17;2.87;;;12.20;99.90;;;;;;5059027;28;20498;-61
2021/12/31 09:52:40;;;;;;;7.37;3.03;;;12.20;99.90;;;;;;5060220;28;20879;-61
2021/12/31 09:55:09;;;;;;;3.70;3.23;;;12.20;99.90;;;;;;5059548;28;20883;-61
2021/12/31 09:57:36;;;;;;;8.43;7.53;;;12.20;99.90;;;;;;5059775;28;20532;-61
2021/12/31 10:00:09;;;;;;;3.90;3.47;;;12.30;99.90;;;;;;5059618;28;20490;-61
2021/12/31 10:02:35;;;;;;;4.63;3.90;;;12.30;99.90;;;;;;5059783;28;20564;-61
2021/12/31 10:05:04;;;;;;;9.60;7.53;;;12.40;99.90;;;;;;5059623;28;20466;-61
2021/12/31 10:07:34;;;;;;;6.10;5.50;;;12.40;99.90;;;;;;5059373;28;20521;-61
2021/12/31 10:10:10;;;;;;;3.90;3.60;;;12.30;99.90;;;;;;5059574;28;20521;-61
2021/12/31 10:12:51;;;;;;;9.10;6.70;;;12.30;99.90;;;;;;5055469;28;20461;-61
2021/12/31 10:15:22;;;;;;;6.60;5.37;;;12.30;99.90;;;;;;5059113;28;20458;-61
2021/12/31 10:17:49;;;;;;;3.73;3.30;;;12.30;99.90;;;;;;5059249;28;20875;-61
2021/12/31 10:20:17;;;;;;;7.00;6.13;;;12.30;99.90;;;;;;5058584;28;20498;-61
2021/12/31 10:22:48;;;;;;;6.80;4.80;;;12.30;99.90;;;;;;5058784;28;20470;-60
2021/12/31 10:25:21;;;;;;;4.47;3.47;;;12.40;99.90;;;;;;5058444;28;20462;-60
2021/12/31 10:27:52;;;;;;;3.87;3.40;;;12.40;99.90;;;;;;5058334;28;20494;-60
2021/12/31 10:30:26;;;;;;;5.50;3.70;;;12.40;99.90;;;;;;5057979;28;20551;-60
2021/12/31 10:32:53;;;;;;;6.67;4.83;;;12.50;99.90;;;;;;5050974;28;20548;-61
2021/12/31 10:35:22;;;;;;;4.20;3.60;;;12.50;99.90;;;;;;5046309;28;20797;-61
2021/12/31 10:37:53;;;;;;;4.67;3.30;;;12.60;99.90;;;;;;5052403;28;20462;-61
2021/12/31 10:40:28;;;;;;;5.43;3.90;;;12.60;99.90;;;;;;5058536;28;20489;-61
2021/12/31 10:43:07;;;;;;;5.23;4.10;;;12.60;99.90;;;;;;5058588;28;20736;-60
2021/12/31 10:45:40;;;;;;;7.90;5.93;;;12.70;99.90;;;;;;5058029;28;20544;-60
2021/12/31 10:48:12;;;;;;;4.40;3.47;;;12.80;99.90;;;;;;5059296;28;20838;-60
2021/12/31 10:51:00;;;;;;;5.40;3.93;;;12.90;99.90;;;;;;5058914;28;20462;-60
2021/12/31 10:53:34;;;;;;;5.13;3.70;;;12.90;99.90;;;;;;5049507;28;20470;-60
2021/12/31 10:56:07;;;;;;;5.10;4.20;;;13.00;99.90;;;;;;5056332;28;20466;-60
2021/12/31 10:58:35;;;;;;;7.20;6.23;;;13.00;99.90;;;;;;5059465;28;20490;-60
2021/12/31 11:01:05;;;;;;;11.77;6.90;;;13.20;99.90;;;;;;5057281;28;20493;-61
2021/12/31 11:03:34;;;;;;;11.17;8.30;;;13.40;99.90;;;;;;5059308;28;20519;-60
2021/12/31 11:06:02;;;;;;;4.30;3.90;;;13.50;99.90;;;;;;5058782;28;20864;-60
2021/12/31 11:08:32;;;;;;;5.30;4.20;;;13.50;99.90;;;;;;5058537;28;20512;-60
2021/12/31 11:11:00;;;;;;;8.60;4.50;;;13.40;99.90;;;;;;5057573;28;20486;-60
2021/12/31 11:13:30;;;;;;;3.30;3.00;;;13.30;99.90;;;;;;5057600;28;20516;-60
2021/12/31 11:15:59;;;;;;;3.97;2.70;;;13.10;99.90;;;;;;5053764;28;20463;-60
2021/12/31 11:18:29;;;;;;;5.73;3.03;;;13.10;99.90;;;;;;5057702;28;20501;-60
2021/12/31 11:20:59;;;;;;;4.27;2.73;;;13.10;99.90;;;;;;5057289;28;20922;-60
2021/12/31 11:23:27;;;;;;;3.30;3.00;;;13.00;99.90;;;;;;5057483;28;20465;-60
2021/12/31 11:26:04;;;;;;;4.97;3.20;;;13.00;99.90;;;;;;5057140;28;20481;-60
2021/12/31 11:28:33;;;;;;;3.00;2.70;;;12.90;99.90;;;;;;5057473;28;20458;-62
2021/12/31 11:31:26;;;;;;;4.70;3.17;;;12.80;99.90;;;;;;5057163;28;20461;-62
2021/12/31 11:34:27;;;;;;;3.53;3.23;;;12.80;99.90;;;;;;5057654;28;20458;-62
2021/12/31 11:36:57;;;;;;;3.03;2.73;;;12.80;99.90;;;;;;5056664;28;20462;-62
2021/12/31 11:39:26;;;;;;;3.23;2.93;;;12.80;99.90;;;;;;5057031;28;20476;-63
2021/12/31 11:41:58;;;;;;;3.90;3.50;;;12.80;99.90;;;;;;5057197;28;20466;-62
2021/12/31 11:44:26;;;;;;;3.83;3.53;;;12.70;99.90;;;;;;5057737;28;20552;-63
2021/12/31 11:47:12;;;;;;;3.47;2.90;;;12.80;99.90;;;;;;5056815;28;20501;-63
2021/12/31 11:49:41;;;;;;;6.93;3.40;;;12.90;99.90;;;;;;5058200;28;20458;-63
2021/12/31 11:52:10;;;;;;;4.07;3.67;;;13.00;99.90;;;;;;5058607;28;20767;-63
2021/12/31 11:54:39;;;;;;;3.20;3.00;;;13.00;99.90;;;;;;5058303;28;20462;-63
2021/12/31 11:57:20;;;;;;;3.80;3.40;;;13.00;99.90;;;;;;5057446;28;20528;-63
2021/12/31 11:59:52;;;;;;;7.37;3.10;;;13.00;99.90;;;;;;5057667;28;20490;-61
2021/12/31 12:02:35;;;;;;;4.90;3.43;;;13.00;99.90;;;;;;5058022;28;20474;-61
2021/12/31 12:05:14;;;;;;;4.90;3.37;;;13.10;99.90;;;;;;5057948;28;20532;-61
2021/12/31 12:07:46;;;;;;;4.77;3.30;;;13.20;99.90;;;;;;5057993;28;20454;-61
2021/12/31 12:10:25;;;;;;;3.70;2.80;;;13.20;99.90;;;;;;5057755;28;20489;-61
2021/12/31 12:13:17;;;;;;;3.67;3.27;;;13.30;99.90;;;;;;5057927;28;20879;-61
2021/12/31 12:15:44;;;;;;;4.50;2.53;;;13.30;99.90;;;;;;5057912;28;20827;-63
2021/12/31 12:18:34;;;;;;;2.87;2.50;;;13.30;99.90;;;;;;5048134;28;20469;-62
2021/12/31 12:21:13;;;;;;;3.00;2.77;;;13.30;99.90;;;;;;5055040;28;20509;-62
2021/12/31 12:23:40;;;;;;;4.10;3.10;;;13.40;99.90;;;;;;5052710;28;20458;-60
2021/12/31 12:26:20;;;;;;;7.17;3.70;;;13.40;99.90;;;;;;5052605;28;20458;-61
2021/12/31 12:28:49;;;;;;;3.30;2.67;;;13.70;99.90;;;;;;5053071;28;20466;-60
2021/12/31 12:31:20;;;;;;;3.80;2.83;;;13.90;7.70;;;;;;5051862;28;20520;-60
2021/12/31 12:33:59;;;;;;;3.83;3.03;;;13.80;1.00;;;;;;5052907;28;20470;-60
2021/12/31 12:36:28;;;;;;;3.33;3.03;;;13.80;1.00;;;;;;5053534;28;20809;-60
2021/12/31 12:39:10;;;;;;;3.27;2.97;;;13.60;1.00;;;;;;5055085;28;20519;-60
2021/12/31 12:41:37;;;;;;;3.23;2.93;;;13.80;3.40;;;;;;5054011;28;20548;-60
2021/12/31 12:44:12;;;;;;;3.37;2.60;;;14.00;1.00;;;;;;5055551;28;20879;-60
2021/12/31 12:46:55;;;;;;;2.80;2.50;;;14.10;1.00;;;;;;5055238;28;20827;-60
2021/12/31 12:49:24;;;;;;;3.27;2.97;;;14.40;1.00;;;;;;5057603;28;20512;-60
2021/12/31 12:51:52;;;;;;;3.07;2.77;;;14.40;1.00;;;;;;5059261;28;20964;-60
2021/12/31 12:54:21;;;;;;;4.03;3.00;;;14.20;1.00;;;;;;5056382;28;20469;-60
2021/12/31 12:56:51;;;;;;;3.37;3.07;;;14.10;1.00;;;;;;5058798;28;20553;-60
2021/12/31 12:59:21;;;;;;;6.13;3.50;;;13.90;1.00;;;;;;5058955;28;20460;-60
2021/12/31 13:01:50;;;;;;;4.17;2.63;;;13.80;1.00;;;;;;5058191;28;20454;-60
2021/12/31 13:04:18;;;;;;;4.20;3.00;;;13.80;1.00;;;;;;5056045;28;20519;-60